sensor_id;sensor_type;location;lat;lon;timestamp;temperature;humidity
15844;DHT22;50807;52.436;13.346;2023-08-30T00:00:30;19.90;99.90
15844;DHT22;50807;52.436;13.346;2023-08-30T00:01:02;19.90;99.90
15844;DHT22;50807;52.436;13.346;2023-08-30T00:01:33;19.90;99.90
15844;DHT22;50807;52.436;13.346;2023-08-30T00:02:04;19.90;99.90
15844;DHT22;50807;52.436;13.346;2023-08-30T00:02:34;19.90;99.90
15844;DHT22;50807;52.436;13.346;2023-08-30T00:03:07;19.90;99.90
15844;DHT22;50807;52.436;13.346;2023-08-30T00:03:38;19.90;99.90
15844;DHT22;50807;52.436;13.346;2023-08-30T00:04:09;19.90;99.90
15844;DHT22;50807;52.436;13.346;2023-08-30T00:04:42;19.90;99.90
15844;DHT22;50807;52.436;13.346;2023-08-30T00:05:13;19.90;99.90
15844;DHT22;50807;52.436;13.346;2023-08-30T00:05:45;19.90;99.90
15844;DHT22;50807;52.436;13.346;2023-08-30T00:06:16;19.90;99.90
15844;DHT22;50807;52.436;13.346;2023-08-30T00:06:47;19.90;99.90
15844;DHT22;50807;52.436;13.346;2023-08-30T00:07:17;19.90;99.90
15844;DHT22;50807;52.436;13.346;2023-08-30T00:07:49;19.90;99.90
15844;DHT22;50807;52.436;13.346;2023-08-30T00:08:20;19.90;99.90
15844;DHT22;50807;52.436;13.346;2023-08-30T00:08:50;19.90;99.90
15844;DHT22;50807;52.436;13.346;2023-08-30T00:09:22;19.90;99.90
15844;DHT22;50807;52.436;13.346;2023-08-30T00:09:54;19.90;99.90
15844;DHT22;50807;52.436;13.346;2023-08-30T00:10:25;19.90;99.90
15844;DHT22;50807;52.436;13.346;2023-08-30T00:10:56;19.90;99.90
15844;DHT22;50807;52.436;13.346;2023-08-30T00:11:28;19.90;99.90
15844;DHT22;50807;52.436;13.346;2023-08-30T00:12:02;19.90;99.90
15844;DHT22;50807;52.436;13.346;2023-08-30T00:12:34;19.90;99.90
15844;DHT22;50807;52.436;13.346;2023-08-30T00:13:05;19.90;99.90
15844;DHT22;50807;52.436;13.346;2023-08-30T00:13:35;19.90;99.90
15844;DHT22;50807;52.436;13.346;2023-08-30T00:14:07;19.90;99.90
15844;DHT22;50807;52.436;13.346;2023-08-30T00:14:38;19.90;99.90
15844;DHT22;50807;52.436;13.346;2023-08-30T00:15:09;19.90;99.90
15844;DHT22;50807;52.436;13.346;2023-08-30T00:15:41;19.80;99.90
15844;DHT22;50807;52.436;13.346;2023-08-30T00:16:12;19.90;99.90
15844;DHT22;50807;52.436;13.346;2023-08-30T00:16:43;19.80;99.90
15844;DHT22;50807;52.436;13.346;2023-08-30T00:17:14;19.90;99.90
15844;DHT22;50807;52.436;13.346;2023-08-30T00:17:45;19.90;99.90
15844;DHT22;50807;52.436;13.346;2023-08-30T00:18:16;19.80;99.90
15844;DHT22;50807;52.436;13.346;2023-08-30T00:18:49;19.80;99.90
15844;DHT22;50807;52.436;13.346;2023-08-30T00:19:19;19.80;99.90
15844;DHT22;50807;52.436;13.346;2023-08-30T00:19:51;19.80;99.90
15844;DHT22;50807;52.436;13.346;2023-08-30T00:20:23;19.80;99.90
15844;DHT22;50807;52.436;13.346;2023-08-30T00:20:55;19.80;99.90
15844;DHT22;50807;52.436;13.346;2023-08-30T00:21:28;19.80;99.90
15844;DHT22;50807;52.436;13.346;2023-08-30T00:21:58;19.80;99.90
15844;DHT22;50807;52.436;13.346;2023-08-30T00:22:29;19.80;99.90
15844;DHT22;50807;52.436;13.346;2023-08-30T00:23:01;19.80;99.90
15844;DHT22;50807;52.436;13.346;2023-08-30T00:23:32;19.80;99.90
15844;DHT22;50807;52.436;13.346;2023-08-30T00:24:03;19.80;99.90
15844;DHT22;50807;52.436;13.346;2023-08-30T00:24:34;19.80;99.90
15844;DHT22;50807;52.436;13.346;2023-08-30T00:25:07;19.80;99.90
15844;DHT22;50807;52.436;13.346;2023-08-30T00:25:38;19.80;99.90
15844;DHT22;50807;52.436;13.346;2023-08-30T00:26:09;19.80;99.90
15844;DHT22;50807;52.436;13.346;2023-08-30T00:26:40;19.80;99.90
15844;DHT22;50807;52.436;13.346;2023-08-30T00:27:11;19.80;99.90
15844;DHT22;50807;52.436;13.346;2023-08-30T00:27:42;19.80;99.90
15844;DHT22;50807;52.436;13.346;2023-08-30T00:28:13;19.70;99.90
15844;DHT22;50807;52.436;13.346;2023-08-30T00:28:43;19.70;99.90
15844;DHT22;50807;52.436;13.346;2023-08-30T00:29:15;19.80;99.90
15844;DHT22;50807;52.436;13.346;2023-08-30T00:29:46;19.80;99.90
15844;DHT22;50807;52.436;13.346;2023-08-30T00:30:17;19.70;99.90
15844;DHT22;50807;52.436;13.346;2023-08-30T00:30:52;19.70;99.90
15844;DHT22;50807;52.436;13.346;2023-08-30T00:31:25;19.70;99.90
15844;DHT22;50807;52.436;13.346;2023-08-30T00:31:56;19.70;99.90
15844;DHT22;50807;52.436;13.346;2023-08-30T00:32:26;19.70;99.90
15844;DHT22;50807;52.436;13.346;2023-08-30T00:32:57;19.70;99.90
15844;DHT22;50807;52.436;13.346;2023-08-30T00:33:29;19.70;99.90
15844;DHT22;50807;52.436;13.346;2023-08-30T00:33:59;19.70;99.90
15844;DHT22;50807;52.436;13.346;2023-08-30T00:34:30;19.70;99.90
15844;DHT22;50807;52.436;13.346;2023-08-30T00:35:01;19.70;99.90
15844;DHT22;50807;52.436;13.346;2023-08-30T00:35:33;19.70;99.90
15844;DHT22;50807;52.436;13.346;2023-08-30T00:36:03;19.70;99.90
15844;DHT22;50807;52.436;13.346;2023-08-30T00:36:34;19.70;99.90
15844;DHT22;50807;52.436;13.346;2023-08-30T00:37:05;19.70;99.90
15844;DHT22;50807;52.436;13.346;2023-08-30T00:37:37;19.70;99.90
15844;DHT22;50807;52.436;13.346;2023-08-30T00:38:08;19.70;99.90
15844;DHT22;50807;52.436;13.346;2023-08-30T00:38:38;19.70;99.90
15844;DHT22;50807;52.436;13.346;2023-08-30T00:39:09;19.70;99.90
15844;DHT22;50807;52.436;13.346;2023-08-30T00:39:41;19.70;99.90
15844;DHT22;50807;52.436;13.346;2023-08-30T00:40:13;19.70;99.90
15844;DHT22;50807;52.436;13.346;2023-08-30T00:40:44;19.60;99.90
15844;DHT22;50807;52.436;13.346;2023-08-30T00:41:15;19.70;99.90
15844;DHT22;50807;52.436;13.346;2023-08-30T00:41:47;19.60;99.90
15844;DHT22;50807;52.436;13.346;2023-08-30T00:42:17;19.60;99.90
15844;DHT22;50807;52.436;13.346;2023-08-30T00:42:48;19.60;99.90
15844;DHT22;50807;52.436;13.346;2023-08-30T00:43:19;19.60;99.90
15844;DHT22;50807;52.436;13.346;2023-08-30T00:43:51;19.60;99.90
15844;DHT22;50807;52.436;13.346;2023-08-30T00:44:21;19.60;99.90
15844;DHT22;50807;52.436;13.346;2023-08-30T00:44:52;19.60;99.90
15844;DHT22;50807;52.436;13.346;2023-08-30T00:45:23;19.60;99.90
15844;DHT22;50807;52.436;13.346;2023-08-30T00:45:57;19.60;99.90
15844;DHT22;50807;52.436;13.346;2023-08-30T00:46:28;19.60;99.90
15844;DHT22;50807;52.436;13.346;2023-08-30T00:46:59;19.60;99.90
15844;DHT22;50807;52.436;13.346;2023-08-30T00:47:31;19.60;99.90
15844;DHT22;50807;52.436;13.346;2023-08-30T00:48:04;19.60;99.90
15844;DHT22;50807;52.436;13.346;2023-08-30T00:48:36;19.60;99.90
15844;DHT22;50807;52.436;13.346;2023-08-30T00:49:07;19.60;99.90
15844;DHT22;50807;52.436;13.346;2023-08-30T00:49:40;19.60;99.90
15844;DHT22;50807;52.436;13.346;2023-08-30T00:50:11;19.60;99.90
15844;DHT22;50807;52.436;13.346;2023-08-30T00:50:43;19.60;99.90
15844;DHT22;50807;52.436;13.346;2023-08-30T00:51:14;19.60;99.90
15844;DHT22;50807;52.436;13.346;2023-08-30T00:51:46;19.60;99.90
15844;DHT22;50807;52.436;13.346;2023-08-30T00:52:17;19.60;99.90
15844;DHT22;50807;52.436;13.346;2023-08-30T00:52:48;19.60;99.90
15844;DHT22;50807;52.436;13.346;2023-08-30T00:53:19;19.60;99.90
15844;DHT22;50807;52.436;13.346;2023-08-30T00:53:51;19.50;99.90
15844;DHT22;50807;52.436;13.346;2023-08-30T00:54:22;19.50;99.90
15844;DHT22;50807;52.436;13.346;2023-08-30T00:54:53;19.50;99.90
15844;DHT22;50807;52.436;13.346;2023-08-30T00:55:25;19.50;99.90
15844;DHT22;50807;52.436;13.346;2023-08-30T00:55:56;19.50;99.90
15844;DHT22;50807;52.436;13.346;2023-08-30T00:56:28;19.50;99.90
15844;DHT22;50807;52.436;13.346;2023-08-30T00:57:00;19.50;99.90
15844;DHT22;50807;52.436;13.346;2023-08-30T00:57:31;19.50;99.90
15844;DHT22;50807;52.436;13.346;2023-08-30T00:58:03;19.50;99.90
15844;DHT22;50807;52.436;13.346;2023-08-30T00:58:35;19.50;99.90
15844;DHT22;50807;52.436;13.346;2023-08-30T00:59:07;19.50;99.90
15844;DHT22;50807;52.436;13.346;2023-08-30T00:59:38;19.50;99.90
15844;DHT22;50807;52.436;13.346;2023-08-30T01:00:11;19.50;99.90
15844;DHT22;50807;52.436;13.346;2023-08-30T01:00:42;19.50;99.90
15844;DHT22;50807;52.436;13.346;2023-08-30T01:01:13;19.40;99.90
15844;DHT22;50807;52.436;13.346;2023-08-30T01:01:45;19.50;99.90
15844;DHT22;50807;52.436;13.346;2023-08-30T01:02:17;19.40;99.90
15844;DHT22;50807;52.436;13.346;2023-08-30T01:02:48;19.40;99.90
15844;DHT22;50807;52.436;13.346;2023-08-30T01:03:19;19.40;99.90
15844;DHT22;50807;52.436;13.346;2023-08-30T01:03:52;19.40;99.90
15844;DHT22;50807;52.436;13.346;2023-08-30T01:04:22;19.40;99.90
15844;DHT22;50807;52.436;13.346;2023-08-30T01:04:53;19.40;99.90
15844;DHT22;50807;52.436;13.346;2023-08-30T01:05:24;19.40;99.90
15844;DHT22;50807;52.436;13.346;2023-08-30T01:05:56;19.40;99.90
15844;DHT22;50807;52.436;13.346;2023-08-30T01:06:27;19.40;99.90
15844;DHT22;50807;52.436;13.346;2023-08-30T01:06:58;19.40;99.90
15844;DHT22;50807;52.436;13.346;2023-08-30T01:07:28;19.40;99.90
15844;DHT22;50807;52.436;13.346;2023-08-30T01:08:00;19.40;99.90
15844;DHT22;50807;52.436;13.346;2023-08-30T01:08:32;19.40;99.90
15844;DHT22;50807;52.436;13.346;2023-08-30T01:09:04;19.40;99.90
15844;DHT22;50807;52.436;13.346;2023-08-30T01:09:35;19.40;99.90
15844;DHT22;50807;52.436;13.346;2023-08-30T01:10:07;19.40;99.90
15844;DHT22;50807;52.436;13.346;2023-08-30T01:10:51;19.40;99.90
15844;DHT22;50807;52.436;13.346;2023-08-30T01:11:34;19.40;99.90
15844;DHT22;50807;52.436;13.346;2023-08-30T01:12:12;19.40;99.90
15844;DHT22;50807;52.436;13.346;2023-08-30T01:12:49;19.40;99.90
15844;DHT22;50807;52.436;13.346;2023-08-30T01:13:28;19.40;99.90
15844;DHT22;50807;52.436;13.346;2023-08-30T01:14:05;19.40;99.90
15844;DHT22;50807;52.436;13.346;2023-08-30T01:14:42;19.40;99.90
15844;DHT22;50807;52.436;13.346;2023-08-30T01:15:18;19.40;99.90
15844;DHT22;50807;52.436;13.346;2023-08-30T01:15:51;19.40;99.90
15844;DHT22;50807;52.436;13.346;2023-08-30T01:16:24;19.40;99.90
15844;DHT22;50807;52.436;13.346;2023-08-30T01:16:56;19.40;99.90
15844;DHT22;50807;52.436;13.346;2023-08-30T01:17:28;19.40;99.90
15844;DHT22;50807;52.436;13.346;2023-08-30T01:18:02;19.30;99.90
15844;DHT22;50807;52.436;13.346;2023-08-30T01:18:36;19.30;99.90
15844;DHT22;50807;52.436;13.346;2023-08-30T01:19:28;19.30;99.90
15844;DHT22;50807;52.436;13.346;2023-08-30T01:20:10;19.30;99.90
15844;DHT22;50807;52.436;13.346;2023-08-30T01:20:47;19.30;99.90
15844;DHT22;50807;52.436;13.346;2023-08-30T01:21:28;19.30;99.90
15844;DHT22;50807;52.436;13.346;2023-08-30T01:22:08;19.30;99.90
15844;DHT22;50807;52.436;13.346;2023-08-30T01:22:53;19.30;99.90
15844;DHT22;50807;52.436;13.346;2023-08-30T01:23:36;19.30;99.90
15844;DHT22;50807;52.436;13.346;2023-08-30T01:24:17;19.30;99.90
15844;DHT22;50807;52.436;13.346;2023-08-30T01:25:14;19.30;99.90
15844;DHT22;50807;52.436;13.346;2023-08-30T01:25:57;19.30;99.90
15844;DHT22;50807;52.436;13.346;2023-08-30T01:26:40;19.30;99.90
15844;DHT22;50807;52.436;13.346;2023-08-30T01:27:16;19.30;99.90
15844;DHT22;50807;52.436;13.346;2023-08-30T01:27:50;19.30;99.90
15844;DHT22;50807;52.436;13.346;2023-08-30T01:28:24;19.30;99.90
15844;DHT22;50807;52.436;13.346;2023-08-30T01:28:58;19.30;99.90
15844;DHT22;50807;52.436;13.346;2023-08-30T01:29:33;19.30;99.90
15844;DHT22;50807;52.436;13.346;2023-08-30T01:30:09;19.30;99.90
15844;DHT22;50807;52.436;13.346;2023-08-30T01:30:43;19.30;99.90
15844;DHT22;50807;52.436;13.346;2023-08-30T01:31:18;19.20;99.90
15844;DHT22;50807;52.436;13.346;2023-08-30T01:31:50;19.20;99.90
15844;DHT22;50807;52.436;13.346;2023-08-30T01:32:22;19.20;99.90
15844;DHT22;50807;52.436;13.346;2023-08-30T01:32:56;19.20;99.90
15844;DHT22;50807;52.436;13.346;2023-08-30T01:33:31;19.20;99.90
15844;DHT22;50807;52.436;13.346;2023-08-30T01:34:03;19.20;99.90
15844;DHT22;50807;52.436;13.346;2023-08-30T01:34:35;19.20;99.90
15844;DHT22;50807;52.436;13.346;2023-08-30T01:35:08;19.20;99.90
15844;DHT22;50807;52.436;13.346;2023-08-30T01:35:40;19.20;99.90
15844;DHT22;50807;52.436;13.346;2023-08-30T01:36:11;19.20;99.90
15844;DHT22;50807;52.436;13.346;2023-08-30T01:36:43;19.20;99.90
15844;DHT22;50807;52.436;13.346;2023-08-30T01:37:15;19.20;99.90
15844;DHT22;50807;52.436;13.346;2023-08-30T01:37:48;19.20;99.90
15844;DHT22;50807;52.436;13.346;2023-08-30T01:38:20;19.10;99.90
15844;DHT22;50807;52.436;13.346;2023-08-30T01:38:53;19.20;99.90
15844;DHT22;50807;52.436;13.346;2023-08-30T01:39:24;19.10;99.90
15844;DHT22;50807;52.436;13.346;2023-08-30T01:39:58;19.10;99.90
15844;DHT22;50807;52.436;13.346;2023-08-30T01:40:33;19.10;99.90
15844;DHT22;50807;52.436;13.346;2023-08-30T01:41:07;19.10;99.90
15844;DHT22;50807;52.436;13.346;2023-08-30T01:41:39;19.10;99.90
15844;DHT22;50807;52.436;13.346;2023-08-30T01:42:12;19.10;99.90
15844;DHT22;50807;52.436;13.346;2023-08-30T01:42:46;19.10;99.90
15844;DHT22;50807;52.436;13.346;2023-08-30T01:43:19;19.10;99.90
15844;DHT22;50807;52.436;13.346;2023-08-30T01:43:53;19.10;99.90
15844;DHT22;50807;52.436;13.346;2023-08-30T01:44:26;19.10;99.90
15844;DHT22;50807;52.436;13.346;2023-08-30T01:44:58;19.10;99.90
15844;DHT22;50807;52.436;13.346;2023-08-30T01:45:32;19.10;99.90
15844;DHT22;50807;52.436;13.346;2023-08-30T01:46:05;19.10;99.90
15844;DHT22;50807;52.436;13.346;2023-08-30T01:46:39;19.10;99.90
15844;DHT22;50807;52.436;13.346;2023-08-30T01:47:11;19.10;99.90
15844;DHT22;50807;52.436;13.346;2023-08-30T01:47:42;19.10;99.90
15844;DHT22;50807;52.436;13.346;2023-08-30T01:48:16;19.10;99.90
15844;DHT22;50807;52.436;13.346;2023-08-30T01:48:49;19.10;99.90
15844;DHT22;50807;52.436;13.346;2023-08-30T01:49:21;19.10;99.90
15844;DHT22;50807;52.436;13.346;2023-08-30T01:49:53;19.10;99.90
15844;DHT22;50807;52.436;13.346;2023-08-30T01:50:26;19.10;99.90
15844;DHT22;50807;52.436;13.346;2023-08-30T01:50:59;19.10;99.90
15844;DHT22;50807;52.436;13.346;2023-08-30T01:51:31;19.10;99.90
15844;DHT22;50807;52.436;13.346;2023-08-30T01:52:03;19.10;99.90
15844;DHT22;50807;52.436;13.346;2023-08-30T01:52:36;19.10;99.90
15844;DHT22;50807;52.436;13.346;2023-08-30T01:53:09;19.10;99.90
15844;DHT22;50807;52.436;13.346;2023-08-30T01:53:42;19.10;99.90
15844;DHT22;50807;52.436;13.346;2023-08-30T01:54:18;19.10;99.90
15844;DHT22;50807;52.436;13.346;2023-08-30T01:54:51;19.10;99.90
15844;DHT22;50807;52.436;13.346;2023-08-30T01:55:23;19.10;99.90
15844;DHT22;50807;52.436;13.346;2023-08-30T01:55:57;19.10;99.90
15844;DHT22;50807;52.436;13.346;2023-08-30T01:56:29;19.10;99.90
15844;DHT22;50807;52.436;13.346;2023-08-30T01:57:00;19.10;99.90
15844;DHT22;50807;52.436;13.346;2023-08-30T01:57:31;19.10;99.90
15844;DHT22;50807;52.436;13.346;2023-08-30T01:58:03;19.10;99.90
15844;DHT22;50807;52.436;13.346;2023-08-30T01:58:35;19.10;99.90
15844;DHT22;50807;52.436;13.346;2023-08-30T01:59:06;19.10;99.90
15844;DHT22;50807;52.436;13.346;2023-08-30T01:59:37;19.10;99.90
15844;DHT22;50807;52.436;13.346;2023-08-30T02:00:08;19.10;99.90
15844;DHT22;50807;52.436;13.346;2023-08-30T02:00:41;19.10;99.90
15844;DHT22;50807;52.436;13.346;2023-08-30T02:01:12;19.10;99.90
15844;DHT22;50807;52.436;13.346;2023-08-30T02:01:43;19.10;99.90
15844;DHT22;50807;52.436;13.346;2023-08-30T02:02:14;19.00;99.90
15844;DHT22;50807;52.436;13.346;2023-08-30T02:02:46;19.10;99.90
15844;DHT22;50807;52.436;13.346;2023-08-30T02:03:18;19.00;99.90
15844;DHT22;50807;52.436;13.346;2023-08-30T02:03:49;19.00;99.90
15844;DHT22;50807;52.436;13.346;2023-08-30T02:04:21;19.00;99.90
15844;DHT22;50807;52.436;13.346;2023-08-30T02:04:51;19.00;99.90
15844;DHT22;50807;52.436;13.346;2023-08-30T02:05:22;19.00;99.90
15844;DHT22;50807;52.436;13.346;2023-08-30T02:06:02;19.00;99.90
15844;DHT22;50807;52.436;13.346;2023-08-30T02:06:54;19.00;99.90
15844;DHT22;50807;52.436;13.346;2023-08-30T02:07:32;19.10;99.90
15844;DHT22;50807;52.436;13.346;2023-08-30T02:08:14;19.10;99.90
15844;DHT22;50807;52.436;13.346;2023-08-30T02:08:49;19.10;99.90
15844;DHT22;50807;52.436;13.346;2023-08-30T02:09:28;19.10;99.90
15844;DHT22;50807;52.436;13.346;2023-08-30T02:10:08;19.10;99.90
15844;DHT22;50807;52.436;13.346;2023-08-30T02:10:43;19.10;99.90
15844;DHT22;50807;52.436;13.346;2023-08-30T02:11:22;19.10;99.90
15844;DHT22;50807;52.436;13.346;2023-08-30T02:11:58;19.10;99.90
15844;DHT22;50807;52.436;13.346;2023-08-30T02:12:42;19.10;99.90
15844;DHT22;50807;52.436;13.346;2023-08-30T02:13:21;19.10;99.90
15844;DHT22;50807;52.436;13.346;2023-08-30T02:13:58;19.10;99.90
15844;DHT22;50807;52.436;13.346;2023-08-30T02:14:31;19.00;99.90
15844;DHT22;50807;52.436;13.346;2023-08-30T02:15:04;19.00;99.90
15844;DHT22;50807;52.436;13.346;2023-08-30T02:15:41;19.00;99.90
15844;DHT22;50807;52.436;13.346;2023-08-30T02:16:13;19.00;99.90
15844;DHT22;50807;52.436;13.346;2023-08-30T02:16:46;19.00;99.90
15844;DHT22;50807;52.436;13.346;2023-08-30T02:17:18;19.00;99.90
15844;DHT22;50807;52.436;13.346;2023-08-30T02:17:51;19.00;99.90
15844;DHT22;50807;52.436;13.346;2023-08-30T02:18:22;19.00;99.90
15844;DHT22;50807;52.436;13.346;2023-08-30T02:18:55;19.00;99.90
15844;DHT22;50807;52.436;13.346;2023-08-30T02:19:26;18.90;99.90
15844;DHT22;50807;52.436;13.346;2023-08-30T02:19:58;18.90;99.90
15844;DHT22;50807;52.436;13.346;2023-08-30T02:20:28;18.90;99.90
15844;DHT22;50807;52.436;13.346;2023-08-30T02:20:59;18.90;99.90
15844;DHT22;50807;52.436;13.346;2023-08-30T02:21:30;18.90;99.90
15844;DHT22;50807;52.436;13.346;2023-08-30T02:22:02;18.90;99.90
15844;DHT22;50807;52.436;13.346;2023-08-30T02:22:33;18.90;99.90
15844;DHT22;50807;52.436;13.346;2023-08-30T02:23:04;18.90;99.90
15844;DHT22;50807;52.436;13.346;2023-08-30T02:23:35;18.90;99.90
15844;DHT22;50807;52.436;13.346;2023-08-30T02:24:07;18.80;99.90
15844;DHT22;50807;52.436;13.346;2023-08-30T02:24:39;18.80;99.90
15844;DHT22;50807;52.436;13.346;2023-08-30T02:25:09;18.80;99.90
15844;DHT22;50807;52.436;13.346;2023-08-30T02:25:40;18.80;99.90
15844;DHT22;50807;52.436;13.346;2023-08-30T02:26:12;18.80;99.90
15844;DHT22;50807;52.436;13.346;2023-08-30T02:26:43;18.80;99.90
15844;DHT22;50807;52.436;13.346;2023-08-30T02:27:13;18.80;99.90
15844;DHT22;50807;52.436;13.346;2023-08-30T02:27:44;18.80;99.90
15844;DHT22;50807;52.436;13.346;2023-08-30T02:28:16;18.80;99.90
15844;DHT22;50807;52.436;13.346;2023-08-30T02:28:48;18.80;99.90
15844;DHT22;50807;52.436;13.346;2023-08-30T02:29:19;18.80;99.90
15844;DHT22;50807;52.436;13.346;2023-08-30T02:29:50;18.80;99.90
15844;DHT22;50807;52.436;13.346;2023-08-30T02:30:21;18.80;99.90
15844;DHT22;50807;52.436;13.346;2023-08-30T02:30:53;18.80;99.90
15844;DHT22;50807;52.436;13.346;2023-08-30T02:31:24;18.80;99.90
15844;DHT22;50807;52.436;13.346;2023-08-30T02:31:56;18.80;99.90
15844;DHT22;50807;52.436;13.346;2023-08-30T02:32:26;18.70;99.90
15844;DHT22;50807;52.436;13.346;2023-08-30T02:32:57;18.70;99.90
15844;DHT22;50807;52.436;13.346;2023-08-30T02:33:28;18.70;99.90
15844;DHT22;50807;52.436;13.346;2023-08-30T02:33:59;18.70;99.90
15844;DHT22;50807;52.436;13.346;2023-08-30T02:34:30;18.70;99.90
15844;DHT22;50807;52.436;13.346;2023-08-30T02:35:02;18.70;99.90
15844;DHT22;50807;52.436;13.346;2023-08-30T02:35:33;18.70;99.90
15844;DHT22;50807;52.436;13.346;2023-08-30T02:36:05;18.70;99.90
15844;DHT22;50807;52.436;13.346;2023-08-30T02:36:36;18.70;99.90
15844;DHT22;50807;52.436;13.346;2023-08-30T02:37:07;18.70;99.90
15844;DHT22;50807;52.436;13.346;2023-08-30T02:37:38;18.70;99.90
15844;DHT22;50807;52.436;13.346;2023-08-30T02:38:10;18.70;99.90
15844;DHT22;50807;52.436;13.346;2023-08-30T02:38:41;18.70;99.90
15844;DHT22;50807;52.436;13.346;2023-08-30T02:39:14;18.70;99.90
15844;DHT22;50807;52.436;13.346;2023-08-30T02:39:45;18.60;99.90
15844;DHT22;50807;52.436;13.346;2023-08-30T02:40:16;18.70;99.90
15844;DHT22;50807;52.436;13.346;2023-08-30T02:40:48;18.60;99.90
15844;DHT22;50807;52.436;13.346;2023-08-30T02:41:18;18.60;99.90
15844;DHT22;50807;52.436;13.346;2023-08-30T02:41:49;18.60;99.90
15844;DHT22;50807;52.436;13.346;2023-08-30T02:42:20;18.60;99.90
15844;DHT22;50807;52.436;13.346;2023-08-30T02:42:51;18.60;99.90
15844;DHT22;50807;52.436;13.346;2023-08-30T02:43:22;18.60;99.90
15844;DHT22;50807;52.436;13.346;2023-08-30T02:43:54;18.70;99.90
15844;DHT22;50807;52.436;13.346;2023-08-30T02:44:26;18.60;99.90
15844;DHT22;50807;52.436;13.346;2023-08-30T02:44:57;18.60;99.90
15844;DHT22;50807;52.436;13.346;2023-08-30T02:45:27;18.60;99.90
15844;DHT22;50807;52.436;13.346;2023-08-30T02:45:58;18.60;99.90
15844;DHT22;50807;52.436;13.346;2023-08-30T02:46:31;18.60;99.90
15844;DHT22;50807;52.436;13.346;2023-08-30T02:47:02;18.60;99.90
15844;DHT22;50807;52.436;13.346;2023-08-30T02:47:33;18.60;99.90
15844;DHT22;50807;52.436;13.346;2023-08-30T02:48:05;18.60;99.90
15844;DHT22;50807;52.436;13.346;2023-08-30T02:48:37;18.60;99.90
15844;DHT22;50807;52.436;13.346;2023-08-30T02:49:08;18.60;99.90
15844;DHT22;50807;52.436;13.346;2023-08-30T02:49:39;18.60;99.90
15844;DHT22;50807;52.436;13.346;2023-08-30T02:50:10;18.60;99.90
15844;DHT22;50807;52.436;13.346;2023-08-30T02:50:42;18.60;99.90
15844;DHT22;50807;52.436;13.346;2023-08-30T02:51:12;18.60;99.90
15844;DHT22;50807;52.436;13.346;2023-08-30T02:51:43;18.60;99.90
15844;DHT22;50807;52.436;13.346;2023-08-30T02:52:15;18.60;99.90
15844;DHT22;50807;52.436;13.346;2023-08-30T02:52:46;18.60;99.90
15844;DHT22;50807;52.436;13.346;2023-08-30T02:53:16;18.60;99.90
15844;DHT22;50807;52.436;13.346;2023-08-30T02:53:48;18.60;99.90
15844;DHT22;50807;52.436;13.346;2023-08-30T02:54:19;18.60;99.90
15844;DHT22;50807;52.436;13.346;2023-08-30T02:54:50;18.60;99.90
15844;DHT22;50807;52.436;13.346;2023-08-30T02:55:21;18.60;99.90
15844;DHT22;50807;52.436;13.346;2023-08-30T02:55:52;18.60;99.90
15844;DHT22;50807;52.436;13.346;2023-08-30T02:56:25;18.60;99.90
15844;DHT22;50807;52.436;13.346;2023-08-30T02:56:56;18.60;99.90
15844;DHT22;50807;52.436;13.346;2023-08-30T02:57:28;18.60;99.90
15844;DHT22;50807;52.436;13.346;2023-08-30T02:57:59;18.60;99.90
15844;DHT22;50807;52.436;13.346;2023-08-30T02:58:29;18.60;99.90
15844;DHT22;50807;52.436;13.346;2023-08-30T02:59:01;18.60;99.90
15844;DHT22;50807;52.436;13.346;2023-08-30T02:59:33;18.60;99.90
15844;DHT22;50807;52.436;13.346;2023-08-30T03:00:05;18.60;99.90
15844;DHT22;50807;52.436;13.346;2023-08-30T03:00:37;18.60;99.90
15844;DHT22;50807;52.436;13.346;2023-08-30T03:01:08;18.60;99.90
15844;DHT22;50807;52.436;13.346;2023-08-30T03:01:39;18.60;99.90
15844;DHT22;50807;52.436;13.346;2023-08-30T03:02:10;18.60;99.90
15844;DHT22;50807;52.436;13.346;2023-08-30T03:02:41;18.60;99.90
15844;DHT22;50807;52.436;13.346;2023-08-30T03:03:12;18.60;99.90
15844;DHT22;50807;52.436;13.346;2023-08-30T03:03:45;18.60;99.90
15844;DHT22;50807;52.436;13.346;2023-08-30T03:04:16;18.60;99.90
15844;DHT22;50807;52.436;13.346;2023-08-30T03:04:48;18.60;99.90
15844;DHT22;50807;52.436;13.346;2023-08-30T03:05:19;18.60;99.90
15844;DHT22;50807;52.436;13.346;2023-08-30T03:05:49;18.60;99.90
15844;DHT22;50807;52.436;13.346;2023-08-30T03:06:20;18.60;99.90
15844;DHT22;50807;52.436;13.346;2023-08-30T03:06:52;18.60;99.90
15844;DHT22;50807;52.436;13.346;2023-08-30T03:07:22;18.60;99.90
15844;DHT22;50807;52.436;13.346;2023-08-30T03:07:53;18.60;99.90
15844;DHT22;50807;52.436;13.346;2023-08-30T03:08:25;18.60;99.90
15844;DHT22;50807;52.436;13.346;2023-08-30T03:08:56;18.60;99.90
15844;DHT22;50807;52.436;13.346;2023-08-30T03:09:26;18.60;99.90
15844;DHT22;50807;52.436;13.346;2023-08-30T03:09:58;18.60;99.90
15844;DHT22;50807;52.436;13.346;2023-08-30T03:10:29;18.60;99.90
15844;DHT22;50807;52.436;13.346;2023-08-30T03:11:08;18.60;99.90
15844;DHT22;50807;52.436;13.346;2023-08-30T03:11:39;18.60;99.90
15844;DHT22;50807;52.436;13.346;2023-08-30T03:12:11;18.60;99.90
15844;DHT22;50807;52.436;13.346;2023-08-30T03:12:41;18.60;99.90
15844;DHT22;50807;52.436;13.346;2023-08-30T03:13:12;18.60;99.90
15844;DHT22;50807;52.436;13.346;2023-08-30T03:13:43;18.50;99.90
15844;DHT22;50807;52.436;13.346;2023-08-30T03:14:16;18.50;99.90
15844;DHT22;50807;52.436;13.346;2023-08-30T03:14:47;18.50;99.90
15844;DHT22;50807;52.436;13.346;2023-08-30T03:15:17;18.50;99.90
15844;DHT22;50807;52.436;13.346;2023-08-30T03:15:49;18.50;99.90
15844;DHT22;50807;52.436;13.346;2023-08-30T03:16:20;18.50;99.90
15844;DHT22;50807;52.436;13.346;2023-08-30T03:16:51;18.50;99.90
15844;DHT22;50807;52.436;13.346;2023-08-30T03:17:22;18.50;99.90
15844;DHT22;50807;52.436;13.346;2023-08-30T03:17:54;18.50;99.90
15844;DHT22;50807;52.436;13.346;2023-08-30T03:18:25;18.50;99.90
15844;DHT22;50807;52.436;13.346;2023-08-30T03:18:58;18.50;99.90
15844;DHT22;50807;52.436;13.346;2023-08-30T03:19:28;18.50;99.90
15844;DHT22;50807;52.436;13.346;2023-08-30T03:20:00;18.50;99.90
15844;DHT22;50807;52.436;13.346;2023-08-30T03:20:31;18.40;99.90
15844;DHT22;50807;52.436;13.346;2023-08-30T03:21:02;18.40;99.90
15844;DHT22;50807;52.436;13.346;2023-08-30T03:21:32;18.40;99.90
15844;DHT22;50807;52.436;13.346;2023-08-30T03:22:04;18.40;99.90